Terminal Aerodrome Forecast
Issued by NWS

Home | Current Version | Previous Version | Text Only | Print | Product List | Glossary On
Versions: 1 2 3 4 5 6 7 8 9 10 11 12 13
000
FTUS43 KDDC 182300
TAFHYS
TAF
KHYS 182320Z 1900/1924 16021G28KT P6SM SKC
     FM190200 17014G22KT P6SM SCT250
     FM191500 19020G30KT P6SM BKN250=

USA.gov is the U.S. government's official web portal to all federal, state and local government web resources and services.